Fort Morgan, CO (80701)

5:37 AM MST en Noviembre 26, 2014 (GMT -0700)
Fort Morgan | Change Station
CLOSE
Current Station
Estación meteorológica personal
Location: Fort Morgan, CO
Altura: 4334 ft
Estaciones meteorológicas cercanas

Alt 4334 ft 40.26 °N, 103.80 °W | Updated 2 seconds ago

Nublado
Nublado
28.1 ° F
Sensación térmica 28 ° F
N
0.0
Viento Variable Viento desde OSO
Gusts 0.0 mph

Hoy
Alta -- | Baja -- ° F
--% Posibilidad de precipitaciones
Ayer
Alta -- | Baja -- ° F
Precip. -- pul
6:53 AM 4:31 PM
Creciente, 19% visible
Presión 30.20 pul
Visibilidad 2.5 Millas
Nubes Nubes dispersas 700 ft
Nubes dispersas 1100 ft
Nublado 5000 ft
Vientos helados 28 ° F
Punto de rocío 25 ° F
Humedad 87%
Precipitaciones 0.00 pul
Espesor de la nieve No disponible.
UV 0 de una escala de 12
Polen .10 de una escala de 12
Calidad del aire No disponible.
Flu Activity No disponible.
METAR KFMM 261215Z AUTO 28005KT 2 1/2SM -SN SCT007 SCT011 OVC050 M03/M04 A3020 RMK AO2 T10281037

More Conditions Fewer Conditions

Presión 30.20 pul
Visibilidad 2.5 Millas
Nubes Nubes dispersas 700 ft
Nubes dispersas 1100 ft
Nublado 5000 ft
Vientos helados 28 ° F
Punto de rocío 25 ° F
Humedad 87%
Precipitaciones 0.00 pul
Espesor de la nieve No disponible.
UV 0 de una escala de 12
Polen .10 de una escala de 12
Calidad del aire No disponible.
Flu Activity No disponible.
METAR KFMM 261215Z AUTO 28005KT 2 1/2SM -SN SCT007 SCT011 OVC050 M03/M04 A3020 RMK AO2 T10281037

More Conditions Fewer Conditions

10-Day Weather Forecast

Almanac

Astronomía

Nov. 26, 2014 Salida Puesta
Hora real
Crepúsculo civil
Crepúsculo náutico
Crepúsculo astronómico
Luna
Horas de luz
Horas de luz
Tomorrow will be .
, % of the Moon is Illuminated

Extremos de hoy

Máximos del estado Bajos del estado

Community

WunderPhotos

Upload Photos

1,773,713 ¡fotos cargadas!

WunderBlogs® & News

Nearby

Calidad del aire

  Calidad del aire Índice AQ Contaminante
Not available.

Grosos de nieve

Estación Profundido Altura

Actividad de terremotos

Ciudad Distance Mag. Tiempo y dato
Magnitud mínima muestra es 2,5.

Temperaturas de aguas costeras

Lugar Temperatura

Estaciones meteorológicas cercanas